Terminal Aerodrome Forecast
Issued by NWS Twin Cities, MN

Home | Current Version | Previous Version | Text Only | Print | Product List | Glossary Off
Versions: 1 2 3 4 5 6 7 8 9 10 11 12 13 14 15 16 17 18 19 20 21 22 23 24 25 26 27 28 29 30 31 32

000
FTUS43 KMPX 250520
TAFMSP
TAF
KMSP 250520Z 2506/2612 05003KT 3SM BR VCSH OVC005
      TEMPO 2506/2510 2SM -DZ OVC004
     FM251400 22004KT P6SM SCT004 OVC009
     FM251800 25009KT P6SM OVC010
     FM252000 25009KT P6SM SCT010 OVC018
     FM260000 31009KT P6SM FEW020 OVC050=

USA.gov is the U.S. government's official web portal to all federal, state and local government web resources and services.